sensor_id;sensor_type;location;lat;lon;timestamp;pressure;altitude;pressure_sealevel;temperature;humidity
61026;BME280;46911;32.650;-16.902;2023-04-06T00:01:58;101562.78;;;16.26;45.46
61026;BME280;46911;32.650;-16.902;2023-04-06T00:03:58;101576.94;;;16.28;45.77
61026;BME280;46911;32.650;-16.902;2023-04-06T00:06:02;101572.78;;;16.24;46.04
61026;BME280;46911;32.650;-16.902;2023-04-06T00:08:05;101559.44;;;16.11;46.59
61026;BME280;46911;32.650;-16.902;2023-04-06T00:10:09;101568.38;;;16.12;46.99
61026;BME280;46911;32.650;-16.902;2023-04-06T00:12:10;101585.03;;;16.17;47.64
61026;BME280;46911;32.650;-16.902;2023-04-06T00:14:11;101585.75;;;16.19;46.58
61026;BME280;46911;32.650;-16.902;2023-04-06T00:16:12;101566.03;;;16.07;46.09
61026;BME280;46911;32.650;-16.902;2023-04-06T00:18:13;101586.34;;;16.11;46.13
61026;BME280;46911;32.650;-16.902;2023-04-06T00:20:14;101587.81;;;16.15;45.76
61026;BME280;46911;32.650;-16.902;2023-04-06T00:22:15;101586.13;;;16.14;45.58
61026;BME280;46911;32.650;-16.902;2023-04-06T00:24:18;101541.28;;;15.90;45.44
61026;BME280;46911;32.650;-16.902;2023-04-06T00:26:19;101587.94;;;16.14;45.38
61026;BME280;46911;32.650;-16.902;2023-04-06T00:28:21;101588.44;;;16.19;44.92
61026;BME280;46911;32.650;-16.902;2023-04-06T00:30:26;101595.53;;;16.20;44.82
61026;BME280;46911;32.650;-16.902;2023-04-06T00:32:26;101559.66;;;15.97;44.67
61026;BME280;46911;32.650;-16.902;2023-04-06T00:34:28;101593.44;;;16.12;45.15
61026;BME280;46911;32.650;-16.902;2023-04-06T00:36:31;101597.97;;;16.12;45.39
61026;BME280;46911;32.650;-16.902;2023-04-06T00:38:32;101580.34;;;16.08;45.72
61026;BME280;46911;32.650;-16.902;2023-04-06T00:40:33;101537.47;;;15.82;45.98
61026;BME280;46911;32.650;-16.902;2023-04-06T00:42:35;101585.75;;;16.08;45.85
61026;BME280;46911;32.650;-16.902;2023-04-06T00:44:36;101591.13;;;16.08;46.18
61026;BME280;46911;32.650;-16.902;2023-04-06T00:46:37;101576.19;;;16.03;46.78
61026;BME280;46911;32.650;-16.902;2023-04-06T00:48:38;101583.25;;;16.04;47.57
61026;BME280;46911;32.650;-16.902;2023-04-06T00:50:41;101595.63;;;16.07;47.82
61026;BME280;46911;32.650;-16.902;2023-04-06T00:52:45;101568.19;;;15.90;48.15
61026;BME280;46911;32.650;-16.902;2023-04-06T00:54:46;101583.63;;;16.00;48.69
61026;BME280;46911;32.650;-16.902;2023-04-06T00:56:48;101583.00;;;15.96;49.60
61026;BME280;46911;32.650;-16.902;2023-04-06T00:58:50;101576.03;;;15.94;50.22
61026;BME280;46911;32.650;-16.902;2023-04-06T01:00:51;101580.31;;;15.96;51.08
61026;BME280;46911;32.650;-16.902;2023-04-06T01:02:57;101565.84;;;15.86;51.00
61026;BME280;46911;32.650;-16.902;2023-04-06T01:05:06;101579.69;;;15.93;50.59
61026;BME280;46911;32.650;-16.902;2023-04-06T01:07:21;101558.78;;;15.85;50.56
61026;BME280;46911;32.650;-16.902;2023-04-06T01:09:38;101556.81;;;15.87;50.61
61026;BME280;46911;32.650;-16.902;2023-04-06T01:11:49;101555.47;;;15.81;49.99
61026;BME280;46911;32.650;-16.902;2023-04-06T01:13:56;101566.47;;;15.89;49.42
61026;BME280;46911;32.650;-16.902;2023-04-06T01:16:02;101546.72;;;15.78;48.89
61026;BME280;46911;32.650;-16.902;2023-04-06T01:18:31;101546.97;;;15.74;48.46
61026;BME280;46911;32.650;-16.902;2023-04-06T01:20:50;101545.13;;;15.75;47.27
61026;BME280;46911;32.650;-16.902;2023-04-06T01:23:00;101541.72;;;15.73;46.92
61026;BME280;46911;32.650;-16.902;2023-04-06T01:25:01;101531.78;;;15.62;46.67
61026;BME280;46911;32.650;-16.902;2023-04-06T01:27:22;101567.72;;;15.72;46.31
61026;BME280;46911;32.650;-16.902;2023-04-06T01:29:35;101540.31;;;15.56;45.12
61026;BME280;46911;32.650;-16.902;2023-04-06T01:31:39;101541.50;;;15.52;44.06
61026;BME280;46911;32.650;-16.902;2023-04-06T01:33:40;101541.63;;;15.50;43.29
61026;BME280;46911;32.650;-16.902;2023-04-06T01:35:47;101562.97;;;15.65;42.71
61026;BME280;46911;32.650;-16.902;2023-04-06T01:37:53;101543.56;;;15.48;42.32
61026;BME280;46911;32.650;-16.902;2023-04-06T01:40:04;101539.78;;;15.51;42.06
61026;BME280;46911;32.650;-16.902;2023-04-06T01:42:17;101547.91;;;15.62;40.89
61026;BME280;46911;32.650;-16.902;2023-04-06T01:44:22;101568.81;;;15.70;40.99
61026;BME280;46911;32.650;-16.902;2023-04-06T01:46:30;101548.63;;;15.53;41.20
61026;BME280;46911;32.650;-16.902;2023-04-06T01:48:32;101512.59;;;15.31;40.77
61026;BME280;46911;32.650;-16.902;2023-04-06T01:50:46;101551.63;;;15.48;40.42
61026;BME280;46911;32.650;-16.902;2023-04-06T01:52:53;101555.22;;;15.60;40.38
61026;BME280;46911;32.650;-16.902;2023-04-06T01:54:57;101556.09;;;15.61;40.28
61026;BME280;46911;32.650;-16.902;2023-04-06T01:57:20;101540.53;;;15.53;39.87
61026;BME280;46911;32.650;-16.902;2023-04-06T01:59:29;101559.75;;;15.60;40.08
61026;BME280;46911;32.650;-16.902;2023-04-06T02:01:31;101536.38;;;15.49;40.34
61026;BME280;46911;32.650;-16.902;2023-04-06T02:03:34;101528.66;;;15.44;40.24
61026;BME280;46911;32.650;-16.902;2023-04-06T02:05:41;101549.34;;;15.55;40.33
61026;BME280;46911;32.650;-16.902;2023-04-06T02:07:56;101531.22;;;15.46;40.34
61026;BME280;46911;32.650;-16.902;2023-04-06T02:10:11;101528.31;;;15.49;39.57
61026;BME280;46911;32.650;-16.902;2023-04-06T02:12:13;101532.22;;;15.45;39.58
61026;BME280;46911;32.650;-16.902;2023-04-06T02:14:13;101543.22;;;15.53;39.39
61026;BME280;46911;32.650;-16.902;2023-04-06T02:16:21;101525.22;;;15.42;39.05
61026;BME280;46911;32.650;-16.902;2023-04-06T02:18:22;101546.25;;;15.48;39.23
61026;BME280;46911;32.650;-16.902;2023-04-06T02:20:28;101539.63;;;15.41;39.03
61026;BME280;46911;32.650;-16.902;2023-04-06T02:22:31;101516.97;;;15.32;39.42
61026;BME280;46911;32.650;-16.902;2023-04-06T02:24:36;101541.13;;;15.45;39.60
61026;BME280;46911;32.650;-16.902;2023-04-06T02:26:39;101532.41;;;15.42;40.15
61026;BME280;46911;32.650;-16.902;2023-04-06T02:28:41;101517.97;;;15.31;40.64
61026;BME280;46911;32.650;-16.902;2023-04-06T02:30:41;101520.69;;;15.43;40.68
61026;BME280;46911;32.650;-16.902;2023-04-06T02:32:42;101520.31;;;15.36;40.94
61026;BME280;46911;32.650;-16.902;2023-04-06T02:34:44;101522.75;;;15.39;41.41
61026;BME280;46911;32.650;-16.902;2023-04-06T02:36:46;101524.34;;;15.42;41.40
61026;BME280;46911;32.650;-16.902;2023-04-06T02:38:48;101493.28;;;15.26;41.73
61026;BME280;46911;32.650;-16.902;2023-04-06T02:40:49;101520.19;;;15.37;41.96
61026;BME280;46911;32.650;-16.902;2023-04-06T02:42:56;101516.78;;;15.35;42.19
61026;BME280;46911;32.650;-16.902;2023-04-06T02:45:03;101517.38;;;15.39;42.58
61026;BME280;46911;32.650;-16.902;2023-04-06T02:47:12;101517.50;;;15.37;42.95
61026;BME280;46911;32.650;-16.902;2023-04-06T02:49:16;101521.47;;;15.45;43.29
61026;BME280;46911;32.650;-16.902;2023-04-06T02:51:19;101521.78;;;15.40;43.49
61026;BME280;46911;32.650;-16.902;2023-04-06T02:53:27;101502.94;;;15.29;44.08
61026;BME280;46911;32.650;-16.902;2023-04-06T02:55:28;101496.16;;;15.23;44.25
61026;BME280;46911;32.650;-16.902;2023-04-06T02:57:29;101512.59;;;15.31;44.46
61026;BME280;46911;32.650;-16.902;2023-04-06T02:59:33;101504.03;;;15.26;45.01
61026;BME280;46911;32.650;-16.902;2023-04-06T03:01:46;101462.63;;;15.04;45.22
61026;BME280;46911;32.650;-16.902;2023-04-06T03:03:47;101482.19;;;15.06;45.48
61026;BME280;46911;32.650;-16.902;2023-04-06T03:05:56;101498.13;;;15.21;46.00
61026;BME280;46911;32.650;-16.902;2023-04-06T03:08:02;101476.94;;;15.05;46.32
61026;BME280;46911;32.650;-16.902;2023-04-06T03:10:18;101478.75;;;15.04;46.33
61026;BME280;46911;32.650;-16.902;2023-04-06T03:12:23;101478.25;;;14.99;46.49
61026;BME280;46911;32.650;-16.902;2023-04-06T03:14:47;101494.28;;;15.12;46.87
61026;BME280;46911;32.650;-16.902;2023-04-06T03:16:50;101492.19;;;15.04;47.46
61026;BME280;46911;32.650;-16.902;2023-04-06T03:18:57;101474.28;;;14.92;47.61
61026;BME280;46911;32.650;-16.902;2023-04-06T03:21:00;101467.66;;;14.85;47.86
61026;BME280;46911;32.650;-16.902;2023-04-06T03:23:17;101462.63;;;14.80;47.77
61026;BME280;46911;32.650;-16.902;2023-04-06T03:25:21;101475.63;;;14.86;47.62
61026;BME280;46911;32.650;-16.902;2023-04-06T03:27:25;101482.03;;;14.97;48.02
61026;BME280;46911;32.650;-16.902;2023-04-06T03:29:26;101477.22;;;14.89;47.62
61026;BME280;46911;32.650;-16.902;2023-04-06T03:31:32;101454.03;;;14.75;47.40
61026;BME280;46911;32.650;-16.902;2023-04-06T03:33:42;101466.50;;;14.76;47.06
61026;BME280;46911;32.650;-16.902;2023-04-06T03:35:50;101460.84;;;14.68;47.08
61026;BME280;46911;32.650;-16.902;2023-04-06T03:37:51;101473.72;;;14.76;46.74
61026;BME280;46911;32.650;-16.902;2023-04-06T03:39:52;101467.06;;;14.68;46.95
61026;BME280;46911;32.650;-16.902;2023-04-06T03:42:00;101482.19;;;14.82;46.82
61026;BME280;46911;32.650;-16.902;2023-04-06T03:44:12;101479.25;;;14.85;47.17
61026;BME280;46911;32.650;-16.902;2023-04-06T03:46:15;101480.97;;;14.86;46.92
61026;BME280;46911;32.650;-16.902;2023-04-06T03:48:21;101469.84;;;14.80;46.88
61026;BME280;46911;32.650;-16.902;2023-04-06T03:50:26;101464.75;;;14.88;46.35
61026;BME280;46911;32.650;-16.902;2023-04-06T03:52:27;101488.66;;;15.04;46.16
61026;BME280;46911;32.650;-16.902;2023-04-06T03:54:28;101485.84;;;15.05;46.40
61026;BME280;46911;32.650;-16.902;2023-04-06T03:56:31;101487.56;;;15.06;46.25
61026;BME280;46911;32.650;-16.902;2023-04-06T03:58:37;101464.50;;;14.91;46.23
61026;BME280;46911;32.650;-16.902;2023-04-06T04:00:43;101468.91;;;14.92;46.17
61026;BME280;46911;32.650;-16.902;2023-04-06T04:02:49;101485.78;;;14.94;45.96
61026;BME280;46911;32.650;-16.902;2023-04-06T04:04:50;101483.94;;;14.95;46.35
61026;BME280;46911;32.650;-16.902;2023-04-06T04:06:52;101473.09;;;14.96;45.85
61026;BME280;46911;32.650;-16.902;2023-04-06T04:08:53;101491.84;;;15.09;45.72
61026;BME280;46911;32.650;-16.902;2023-04-06T04:10:57;101468.59;;;14.97;45.81
61026;BME280;46911;32.650;-16.902;2023-04-06T04:13:00;101487.84;;;15.15;45.59
61026;BME280;46911;32.650;-16.902;2023-04-06T04:15:04;101468.00;;;15.04;45.72
61026;BME280;46911;32.650;-16.902;2023-04-06T04:17:08;101489.19;;;15.20;45.83
61026;BME280;46911;32.650;-16.902;2023-04-06T04:19:11;101485.38;;;15.12;45.76
61026;BME280;46911;32.650;-16.902;2023-04-06T04:21:12;101463.44;;;14.94;46.00
61026;BME280;46911;32.650;-16.902;2023-04-06T04:23:15;101466.59;;;14.87;46.17
61026;BME280;46911;32.650;-16.902;2023-04-06T04:25:20;101492.88;;;14.95;46.37
61026;BME280;46911;32.650;-16.902;2023-04-06T04:27:23;101473.28;;;14.82;46.32
61026;BME280;46911;32.650;-16.902;2023-04-06T04:29:27;101473.38;;;14.80;46.29
61026;BME280;46911;32.650;-16.902;2023-04-06T04:31:29;101483.03;;;14.83;46.08
61026;BME280;46911;32.650;-16.902;2023-04-06T04:33:37;101472.75;;;14.77;46.01
61026;BME280;46911;32.650;-16.902;2023-04-06T04:35:44;101471.03;;;14.76;45.92
61026;BME280;46911;32.650;-16.902;2023-04-06T04:37:49;101478.84;;;14.79;46.06
61026;BME280;46911;32.650;-16.902;2023-04-06T04:39:55;101461.94;;;14.65;46.26
61026;BME280;46911;32.650;-16.902;2023-04-06T04:41:56;101458.69;;;14.60;46.46
61026;BME280;46911;32.650;-16.902;2023-04-06T04:43:57;101471.34;;;14.71;46.79
61026;BME280;46911;32.650;-16.902;2023-04-06T04:46:00;101452.16;;;14.64;46.79
61026;BME280;46911;32.650;-16.902;2023-04-06T04:48:21;101448.50;;;14.65;46.63
61026;BME280;46911;32.650;-16.902;2023-04-06T04:50:27;101469.19;;;14.76;46.97
61026;BME280;46911;32.650;-16.902;2023-04-06T04:52:31;101450.63;;;14.73;46.78
61026;BME280;46911;32.650;-16.902;2023-04-06T04:54:49;101456.41;;;14.80;46.56
61026;BME280;46911;32.650;-16.902;2023-04-06T04:56:57;101457.16;;;14.82;46.42
61026;BME280;46911;32.650;-16.902;2023-04-06T04:59:12;101449.03;;;14.70;46.40
61026;BME280;46911;32.650;-16.902;2023-04-06T05:01:15;101443.13;;;14.65;46.64
61026;BME280;46911;32.650;-16.902;2023-04-06T05:03:24;101442.59;;;14.60;46.87
61026;BME280;46911;32.650;-16.902;2023-04-06T05:05:47;101428.31;;;14.60;46.94
61026;BME280;46911;32.650;-16.902;2023-04-06T05:07:52;101436.94;;;14.65;46.96
61026;BME280;46911;32.650;-16.902;2023-04-06T05:10:13;101461.13;;;14.76;47.01
61026;BME280;46911;32.650;-16.902;2023-04-06T05:12:24;101452.34;;;14.74;46.85
61026;BME280;46911;32.650;-16.902;2023-04-06T05:14:36;101457.16;;;14.82;47.07
61026;BME280;46911;32.650;-16.902;2023-04-06T05:16:46;101431.56;;;14.65;46.94
61026;BME280;46911;32.650;-16.902;2023-04-06T05:18:49;101458.25;;;14.79;46.82
61026;BME280;46911;32.650;-16.902;2023-04-06T05:20:53;101442.81;;;14.70;46.95
61026;BME280;46911;32.650;-16.902;2023-04-06T05:23:01;101453.28;;;14.86;46.92
61026;BME280;46911;32.650;-16.902;2023-04-06T05:25:03;101430.75;;;14.63;47.08
61026;BME280;46911;32.650;-16.902;2023-04-06T05:27:05;101456.41;;;14.80;46.66
61026;BME280;46911;32.650;-16.902;2023-04-06T05:29:12;101439.78;;;14.75;46.60
61026;BME280;46911;32.650;-16.902;2023-04-06T05:31:15;101460.41;;;14.74;46.58
61026;BME280;46911;32.650;-16.902;2023-04-06T05:33:26;101447.66;;;14.65;46.53
61026;BME280;46911;32.650;-16.902;2023-04-06T05:35:36;101427.06;;;14.52;46.54
61026;BME280;46911;32.650;-16.902;2023-04-06T05:37:44;101437.88;;;14.51;46.50
61026;BME280;46911;32.650;-16.902;2023-04-06T05:39:45;101460.00;;;14.67;46.21
61026;BME280;46911;32.650;-16.902;2023-04-06T05:41:48;101439.38;;;14.55;45.69
61026;BME280;46911;32.650;-16.902;2023-04-06T05:43:53;101447.44;;;14.55;45.60
61026;BME280;46911;32.650;-16.902;2023-04-06T05:45:54;101445.63;;;14.55;45.30
61026;BME280;46911;32.650;-16.902;2023-04-06T05:47:57;101443.78;;;14.56;45.19
61026;BME280;46911;32.650;-16.902;2023-04-06T05:50:02;101462.38;;;14.59;45.43
61026;BME280;46911;32.650;-16.902;2023-04-06T05:52:10;101456.91;;;14.48;45.69
61026;BME280;46911;32.650;-16.902;2023-04-06T05:54:17;101471.59;;;14.55;45.44
61026;BME280;46911;32.650;-16.902;2023-04-06T05:56:26;101457.66;;;14.50;45.17
61026;BME280;46911;32.650;-16.902;2023-04-06T05:58:28;101473.03;;;14.48;44.82
61026;BME280;46911;32.650;-16.902;2023-04-06T06:00:29;101459.81;;;14.45;44.57
61026;BME280;46911;32.650;-16.902;2023-04-06T06:02:37;101481.38;;;14.56;44.61
61026;BME280;46911;32.650;-16.902;2023-04-06T06:04:40;101459.41;;;14.38;44.75
61026;BME280;46911;32.650;-16.902;2023-04-06T06:06:44;101435.41;;;14.23;44.54
61026;BME280;46911;32.650;-16.902;2023-04-06T06:08:49;101449.13;;;14.32;44.22
61026;BME280;46911;32.650;-16.902;2023-04-06T06:10:53;101472.28;;;14.46;43.99
61026;BME280;46911;32.650;-16.902;2023-04-06T06:13:00;101476.13;;;14.42;43.65
61026;BME280;46911;32.650;-16.902;2023-04-06T06:15:02;101463.72;;;14.40;43.14
61026;BME280;46911;32.650;-16.902;2023-04-06T06:17:08;101472.50;;;14.43;42.98
61026;BME280;46911;32.650;-16.902;2023-04-06T06:19:10;101471.66;;;14.42;42.97
61026;BME280;46911;32.650;-16.902;2023-04-06T06:21:11;101462.66;;;14.30;42.97
61026;BME280;46911;32.650;-16.902;2023-04-06T06:23:16;101485.91;;;14.43;42.82
61026;BME280;46911;32.650;-16.902;2023-04-06T06:25:17;101471.78;;;14.28;42.79
61026;BME280;46911;32.650;-16.902;2023-04-06T06:27:22;101483.88;;;14.33;42.96
61026;BME280;46911;32.650;-16.902;2023-04-06T06:29:26;101438.00;;;13.99;42.96
61026;BME280;46911;32.650;-16.902;2023-04-06T06:31:27;101493.00;;;14.31;42.95
61026;BME280;46911;32.650;-16.902;2023-04-06T06:33:29;101498.38;;;14.31;42.89
61026;BME280;46911;32.650;-16.902;2023-04-06T06:35:33;101494.00;;;14.30;42.83
61026;BME280;46911;32.650;-16.902;2023-04-06T06:37:37;101496.56;;;14.31;42.36
61026;BME280;46911;32.650;-16.902;2023-04-06T06:39:39;101476.19;;;14.16;42.26
61026;BME280;46911;32.650;-16.902;2023-04-06T06:41:39;101497.75;;;14.27;42.23
61026;BME280;46911;32.650;-16.902;2023-04-06T06:43:41;101482.09;;;14.21;42.21
61026;BME280;46911;32.650;-16.902;2023-04-06T06:45:45;101493.88;;;14.31;41.47
61026;BME280;46911;32.650;-16.902;2023-04-06T06:47:47;101496.22;;;14.36;41.59
61026;BME280;46911;32.650;-16.902;2023-04-06T06:49:50;101475.53;;;14.25;41.65
61026;BME280;46911;32.650;-16.902;2023-04-06T06:51:51;101473.06;;;14.22;41.44
61026;BME280;46911;32.650;-16.902;2023-04-06T06:53:52;101486.69;;;14.19;41.48
61026;BME280;46911;32.650;-16.902;2023-04-06T06:55:53;101501.06;;;14.31;41.47
61026;BME280;46911;32.650;-16.902;2023-04-06T06:57:54;101501.59;;;14.36;41.25
61026;BME280;46911;32.650;-16.902;2023-04-06T06:59:55;101499.13;;;14.46;41.00
61026;BME280;46911;32.650;-16.902;2023-04-06T07:01:58;101490.00;;;14.35;40.89
61026;BME280;46911;32.650;-16.902;2023-04-06T07:04:01;101509.53;;;14.50;40.69
61026;BME280;46911;32.650;-16.902;2023-04-06T07:06:05;101499.13;;;14.46;40.56
61026;BME280;46911;32.650;-16.902;2023-04-06T07:08:09;101509.19;;;14.55;40.65
61026;BME280;46911;32.650;-16.902;2023-04-06T07:10:12;101494.59;;;14.46;40.43
61026;BME280;46911;32.650;-16.902;2023-04-06T07:12:16;101502.44;;;14.49;40.38
61026;BME280;46911;32.650;-16.902;2023-04-06T07:14:17;101470.28;;;14.36;40.10
61026;BME280;46911;32.650;-16.902;2023-04-06T07:16:18;101501.03;;;14.56;40.22
61026;BME280;46911;32.650;-16.902;2023-04-06T07:18:22;101507.47;;;14.67;40.29
61026;BME280;46911;32.650;-16.902;2023-04-06T07:20:26;101496.50;;;14.57;40.28
61026;BME280;46911;32.650;-16.902;2023-04-06T07:22:31;101519.69;;;14.71;40.36
61026;BME280;46911;32.650;-16.902;2023-04-06T07:24:32;101518.50;;;14.75;40.43
61026;BME280;46911;32.650;-16.902;2023-04-06T07:26:35;101520.03;;;14.79;40.51
61026;BME280;46911;32.650;-16.902;2023-04-06T07:28:39;101497.59;;;14.67;40.59
61026;BME280;46911;32.650;-16.902;2023-04-06T07:30:40;101529.69;;;14.82;40.58
61026;BME280;46911;32.650;-16.902;2023-04-06T07:32:45;101532.03;;;14.86;40.53
61026;BME280;46911;32.650;-16.902;2023-04-06T07:34:46;101512.81;;;14.80;40.98
61026;BME280;46911;32.650;-16.902;2023-04-06T07:36:50;101506.75;;;14.89;40.55
61026;BME280;46911;32.650;-16.902;2023-04-06T07:38:53;101519.28;;;15.01;40.24
61026;BME280;46911;32.650;-16.902;2023-04-06T07:40:54;101514.66;;;15.03;40.60
61026;BME280;46911;32.650;-16.902;2023-04-06T07:42:55;101533.06;;;15.21;40.50
61026;BME280;46911;32.650;-16.902;2023-04-06T07:44:56;101523.53;;;15.17;40.57
61026;BME280;46911;32.650;-16.902;2023-04-06T07:46:57;101534.31;;;15.28;40.61
61026;BME280;46911;32.650;-16.902;2023-04-06T07:49:01;101524.03;;;15.22;40.91
61026;BME280;46911;32.650;-16.902;2023-04-06T07:51:07;101522.97;;;15.25;41.18
61026;BME280;46911;32.650;-16.902;2023-04-06T07:53:14;101522.47;;;15.31;41.38
61026;BME280;46911;32.650;-16.902;2023-04-06T07:55:17;101538.56;;;15.44;41.30
61026;BME280;46911;32.650;-16.902;2023-04-06T07:57:20;101541.28;;;15.55;41.63
61026;BME280;46911;32.650;-16.902;2023-04-06T07:59:26;101536.53;;;15.59;41.73
61026;BME280;46911;32.650;-16.902;2023-04-06T08:01:27;101507.78;;;15.59;41.45
61026;BME280;46911;32.650;-16.902;2023-04-06T08:03:28;101526.53;;;15.72;42.03
61026;BME280;46911;32.650;-16.902;2023-04-06T08:05:29;101512.84;;;15.64;41.75
61026;BME280;46911;32.650;-16.902;2023-04-06T08:07:30;101530.47;;;15.79;41.81
61026;BME280;46911;32.650;-16.902;2023-04-06T08:09:34;101531.88;;;15.85;41.82
61026;BME280;46911;32.650;-16.902;2023-04-06T08:11:38;101511.88;;;15.76;41.46
61026;BME280;46911;32.650;-16.902;2023-04-06T08:13:39;101532.84;;;15.95;41.96
61026;BME280;46911;32.650;-16.902;2023-04-06T08:15:39;101526.03;;;16.02;42.11
61026;BME280;46911;32.650;-16.902;2023-04-06T08:17:40;101509.84;;;15.91;42.08
61026;BME280;46911;32.650;-16.902;2023-04-06T08:19:46;101533.00;;;16.05;42.19
61026;BME280;46911;32.650;-16.902;2023-04-06T08:21:49;101517.97;;;16.02;42.92
61026;BME280;46911;32.650;-16.902;2023-04-06T08:23:54;101510.84;;;16.01;42.96
61026;BME280;46911;32.650;-16.902;2023-04-06T08:25:57;101529.97;;;16.21;43.20
61026;BME280;46911;32.650;-16.902;2023-04-06T08:27:58;101514.41;;;16.13;43.39
61026;BME280;46911;32.650;-16.902;2023-04-06T08:30:02;101518.47;;;16.30;43.96
61026;BME280;46911;32.650;-16.902;2023-04-06T08:32:03;101519.31;;;16.31;44.11
61026;BME280;46911;32.650;-16.902;2023-04-06T08:34:08;101528.25;;;16.43;44.33
61026;BME280;46911;32.650;-16.902;2023-04-06T08:36:13;101518.34;;;16.43;44.60
61026;BME280;46911;32.650;-16.902;2023-04-06T08:38:14;101525.06;;;16.49;44.54
61026;BME280;46911;32.650;-16.902;2023-04-06T08:40:17;101521.88;;;16.55;44.94
61026;BME280;46911;32.650;-16.902;2023-04-06T08:42:25;101547.94;;;16.77;45.22
61026;BME280;46911;32.650;-16.902;2023-04-06T08:44:26;101539.13;;;16.75;45.06
61026;BME280;46911;32.650;-16.902;2023-04-06T08:46:30;101534.84;;;16.84;44.98
61026;BME280;46911;32.650;-16.902;2023-04-06T08:48:32;101539.38;;;16.95;45.25
61026;BME280;46911;32.650;-16.902;2023-04-06T08:50:38;101546.44;;;17.18;45.62
61026;BME280;46911;32.650;-16.902;2023-04-06T08:52:46;101537.94;;;17.23;45.54
61026;BME280;46911;32.650;-16.902;2023-04-06T08:54:47;101533.72;;;17.30;45.38
61026;BME280;46911;32.650;-16.902;2023-04-06T08:56:51;101549.81;;;17.53;45.76
61026;BME280;46911;32.650;-16.902;2023-04-06T08:58:59;101550.63;;;17.65;45.32
61026;BME280;46911;32.650;-16.902;2023-04-06T09:01:05;101550.78;;;17.84;45.21
61026;BME280;46911;32.650;-16.902;2023-04-06T09:03:07;101553.44;;;17.96;45.44
61026;BME280;46911;32.650;-16.902;2023-04-06T09:05:09;101536.00;;;18.00;45.13
61026;BME280;46911;32.650;-16.902;2023-04-06T09:07:10;101532.81;;;18.16;46.66
61026;BME280;46911;32.650;-16.902;2023-04-06T09:09:11;101553.50;;;18.67;46.75
61026;BME280;46911;32.650;-16.902;2023-04-06T09:11:12;101532.13;;;18.54;45.80
61026;BME280;46911;32.650;-16.902;2023-04-06T09:13:18;101543.00;;;19.54;44.67
61026;BME280;46911;32.650;-16.902;2023-04-06T09:15:22;101557.81;;;19.50;45.91
61026;BME280;46911;32.650;-16.902;2023-04-06T09:17:23;101551.72;;;19.87;45.94
61026;BME280;46911;32.650;-16.902;2023-04-06T09:19:28;101544.69;;;20.41;44.29
61026;BME280;46911;32.650;-16.902;2023-04-06T09:21:29;101549.72;;;20.64;43.63
61026;BME280;46911;32.650;-16.902;2023-04-06T09:23:34;101559.09;;;21.26;43.24
61026;BME280;46911;32.650;-16.902;2023-04-06T09:25:35;101554.84;;;21.77;41.83
61026;BME280;46911;32.650;-16.902;2023-04-06T09:27:38;101567.19;;;22.16;41.16
61026;BME280;46911;32.650;-16.902;2023-04-06T09:29:42;101552.34;;;21.48;42.80
61026;BME280;46911;32.650;-16.902;2023-04-06T09:31:46;101565.13;;;22.18;42.06
61026;BME280;46911;32.650;-16.902;2023-04-06T09:33:47;101562.47;;;22.00;42.38
61026;BME280;46911;32.650;-16.902;2023-04-06T09:35:55;101548.09;;;22.07;41.84
61026;BME280;46911;32.650;-16.902;2023-04-06T09:37:56;101545.47;;;22.93;40.72
61026;BME280;46911;32.650;-16.902;2023-04-06T09:40:07;101550.63;;;22.62;40.84
61026;BME280;46911;32.650;-16.902;2023-04-06T09:42:25;101538.34;;;23.00;40.28
61026;BME280;46911;32.650;-16.902;2023-04-06T09:44:26;101571.94;;;22.22;40.80
61026;BME280;46911;32.650;-16.902;2023-04-06T09:46:27;101566.97;;;22.70;40.32
61026;BME280;46911;32.650;-16.902;2023-04-06T09:48:35;101564.59;;;23.18;38.92
61026;BME280;46911;32.650;-16.902;2023-04-06T09:50:38;101574.66;;;23.34;38.43
61026;BME280;46911;32.650;-16.902;2023-04-06T09:53:01;101576.56;;;23.58;38.26
61026;BME280;46911;32.650;-16.902;2023-04-06T09:55:04;101565.34;;;22.51;39.17
61026;BME280;46911;32.650;-16.902;2023-04-06T10:01:51;101587.03;;;24.68;36.80
61026;BME280;46911;32.650;-16.902;2023-04-06T10:06:39;101574.50;;;24.82;36.59
61026;BME280;46911;32.650;-16.902;2023-04-06T10:08:45;101584.06;;;23.48;38.54
61026;BME280;46911;32.650;-16.902;2023-04-06T10:10:50;101566.16;;;24.19;37.73
61026;BME280;46911;32.650;-16.902;2023-04-06T10:12:53;101570.25;;;23.82;38.68
61026;BME280;46911;32.650;-16.902;2023-04-06T10:14:58;101579.31;;;23.74;38.17
61026;BME280;46911;32.650;-16.902;2023-04-06T10:17:00;101575.25;;;24.68;37.03
61026;BME280;46911;32.650;-16.902;2023-04-06T10:19:10;101582.06;;;24.72;36.49
61026;BME280;46911;32.650;-16.902;2023-04-06T10:21:15;101578.06;;;24.91;35.73
61026;BME280;46911;32.650;-16.902;2023-04-06T10:25:33;101566.78;;;24.46;36.90
61026;BME280;46911;32.650;-16.902;2023-04-06T10:27:34;101575.59;;;24.65;36.77
61026;BME280;46911;32.650;-16.902;2023-04-06T10:29:45;101576.44;;;24.73;35.77
61026;BME280;46911;32.650;-16.902;2023-04-06T10:31:49;101557.84;;;24.04;36.85
61026;BME280;46911;32.650;-16.902;2023-04-06T10:33:59;101574.31;;;24.36;36.25
61026;BME280;46911;32.650;-16.902;2023-04-06T10:36:22;101576.38;;;24.26;36.34
61026;BME280;46911;32.650;-16.902;2023-04-06T10:38:38;101571.16;;;24.72;36.64
61026;BME280;46911;32.650;-16.902;2023-04-06T10:40:42;101564.44;;;25.46;34.97
61026;BME280;46911;32.650;-16.902;2023-04-06T10:42:47;101576.97;;;25.00;35.41
61026;BME280;46911;32.650;-16.902;2023-04-06T10:44:49;101563.19;;;24.94;35.86
61026;BME280;46911;32.650;-16.902;2023-04-06T10:46:58;101568.84;;;24.28;37.33